createdAt,value
2018-03-17T00:00:06.340Z,42.94
2018-03-17T00:02:34.719Z,44.10
2018-03-17T00:05:03.076Z,43.67
2018-03-17T00:07:31.443Z,43.55
2018-03-17T00:09:59.809Z,44.49
2018-03-17T00:12:28.183Z,43.58
2018-03-17T00:14:56.544Z,42.82
2018-03-17T00:17:25.303Z,41.58
2018-03-17T00:19:53.643Z,41.36
2018-03-17T00:22:22.026Z,43.67
2018-03-17T00:24:50.453Z,42.41
2018-03-17T00:27:19.220Z,43.43
2018-03-17T00:29:47.583Z,43.65
2018-03-17T00:32:15.957Z,42.47
2018-03-17T00:34:44.305Z,42.54
2018-03-17T00:37:12.672Z,43.79
2018-03-17T00:39:41.056Z,43.30
2018-03-17T00:42:09.809Z,43.14
2018-03-17T00:44:38.177Z,42.25
2018-03-17T00:47:06.661Z,43.34
2018-03-17T00:49:35.041Z,44.23
2018-03-17T00:52:03.415Z,44.32
2018-03-17T00:54:31.767Z,43.29
2018-03-17T00:57:00.143Z,44.21
2018-03-17T00:59:28.503Z,43.24
2018-03-17T01:01:56.883Z,44.63
2018-03-17T01:04:25.238Z,45.18
2018-03-17T01:06:54.003Z,44.62
2018-03-17T01:09:22.351Z,42.96
2018-03-17T01:11:50.723Z,42.05
2018-03-17T01:14:19.084Z,42.24
2018-03-17T01:16:47.448Z,42.52
2018-03-17T01:19:16.266Z,43.08
2018-03-17T01:21:44.572Z,43.71
2018-03-17T01:24:12.920Z,44.12
2018-03-17T01:26:41.282Z,43.93
2018-03-17T01:29:09.651Z,42.58
2018-03-17T01:31:38.435Z,42.61
2018-03-17T01:34:07.430Z,43.16
2018-03-17T01:36:36.202Z,44.33
2018-03-17T01:39:04.553Z,43.57
2018-03-17T01:41:33.050Z,42.69
2018-03-17T01:44:01.400Z,43.98
2018-03-17T01:46:29.767Z,43.94
2018-03-17T01:48:58.136Z,44.34
2018-03-17T01:51:26.504Z,45.20
2018-03-17T01:57:04.434Z,44.57
2018-03-17T01:59:32.858Z,43.75
2018-03-17T02:02:01.331Z,43.87
2018-03-17T02:04:29.696Z,43.40
2018-03-17T02:06:58.072Z,43.27
2018-03-17T02:09:26.448Z,42.95
2018-03-17T02:11:54.809Z,43.15
2018-03-17T02:14:23.174Z,44.47
2018-03-17T02:16:52.096Z,43.05
2018-03-17T02:19:20.457Z,43.07
2018-03-17T02:21:48.838Z,42.81
2018-03-17T02:24:17.243Z,43.31
2018-03-17T02:26:45.607Z,42.87
2018-03-17T02:29:14.051Z,42.47
2018-03-17T02:31:42.413Z,42.75
2018-03-17T02:34:10.792Z,42.93
2018-03-17T02:36:39.151Z,41.81
2018-03-17T02:39:07.511Z,43.64
2018-03-17T02:41:35.892Z,43.39
2018-03-17T02:44:04.252Z,43.39
2018-03-17T02:46:32.634Z,44.11
2018-03-17T02:49:00.994Z,43.39
2018-03-17T02:51:29.387Z,43.89
2018-03-17T02:53:57.753Z,43.35
2018-03-17T02:56:26.123Z,42.77
2018-03-17T02:58:54.876Z,42.23
2018-03-17T03:01:23.255Z,42.67
2018-03-17T03:03:52.037Z,42.92
2018-03-17T03:06:20.415Z,43.85
2018-03-17T03:08:48.772Z,43.23
2018-03-17T03:11:17.149Z,44.66
2018-03-17T03:13:45.503Z,43.60
2018-03-17T03:16:13.912Z,43.15
2018-03-17T03:18:42.273Z,43.43
2018-03-17T03:21:10.636Z,42.20
2018-03-17T03:23:39.436Z,43.76
2018-03-17T03:26:07.806Z,43.69
2018-03-17T03:28:36.180Z,43.46
2018-03-17T03:31:04.559Z,43.13
2018-03-17T03:33:33.311Z,43.76
2018-03-17T03:36:01.695Z,42.80
2018-03-17T03:38:30.055Z,42.58
2018-03-17T03:40:58.423Z,43.09
2018-03-17T03:43:26.803Z,43.63
2018-03-17T03:45:55.168Z,43.51
2018-03-17T03:48:23.522Z,43.42
2018-03-17T03:50:51.901Z,42.47
2018-03-17T03:53:20.274Z,43.02
2018-03-17T03:55:49.045Z,43.42
2018-03-17T03:58:17.438Z,42.96
2018-03-17T04:00:45.803Z,42.68
2018-03-17T04:03:14.573Z,43.05
2018-03-17T04:05:42.964Z,43.97
2018-03-17T04:08:11.342Z,43.78
2018-03-17T04:10:39.711Z,43.85
2018-03-17T04:13:08.531Z,43.62
2018-03-17T04:15:37.303Z,43.72
2018-03-17T04:18:06.076Z,44.30
2018-03-17T04:20:34.819Z,42.25
2018-03-17T04:23:03.195Z,42.49
2018-03-17T04:25:31.561Z,42.84
2018-03-17T04:27:59.927Z,43.21
2018-03-17T04:30:28.679Z,42.65
2018-03-17T04:32:57.086Z,43.21
2018-03-17T04:35:25.846Z,43.95
2018-03-17T04:37:54.212Z,43.30
2018-03-17T04:40:22.594Z,42.62
2018-03-17T04:42:50.964Z,42.07
2018-03-17T04:45:19.351Z,42.96
2018-03-17T04:47:47.722Z,44.27
2018-03-17T04:50:16.104Z,43.69
2018-03-17T04:52:44.476Z,44.46
2018-03-17T04:55:12.863Z,44.21
2018-03-17T04:57:41.231Z,42.80
2018-03-17T05:00:09.604Z,43.83
2018-03-17T05:02:37.975Z,43.55
2018-03-17T05:05:06.370Z,43.08
2018-03-17T05:07:34.763Z,44.03
2018-03-17T05:10:03.152Z,43.92
2018-03-17T05:12:31.518Z,43.86
2018-03-17T05:14:59.880Z,43.86
2018-03-17T05:17:28.259Z,43.91
2018-03-17T05:19:56.619Z,44.61
2018-03-17T05:22:24.996Z,43.97
2018-03-17T05:24:53.423Z,44.39
2018-03-17T05:27:21.795Z,44.64
2018-03-17T05:29:50.162Z,44.16
2018-03-17T05:32:18.532Z,44.57
2018-03-17T05:34:46.896Z,42.91
2018-03-17T05:37:15.280Z,43.32
2018-03-17T05:39:43.651Z,42.32
2018-03-17T05:42:12.020Z,43.23
2018-03-17T05:44:40.772Z,43.64
2018-03-17T05:47:09.174Z,43.81
2018-03-17T05:49:37.928Z,44.23
2018-03-17T05:52:06.306Z,42.47
2018-03-17T05:54:34.671Z,43.71
2018-03-17T05:57:03.035Z,44.07
2018-03-17T05:59:31.413Z,45.02
2018-03-17T06:01:59.778Z,43.46
2018-03-17T06:04:28.135Z,43.76
2018-03-17T06:06:56.901Z,43.04
2018-03-17T06:09:25.266Z,42.84
2018-03-17T06:11:53.628Z,41.94
2018-03-17T06:14:21.971Z,43.22
2018-03-17T06:16:50.335Z,43.78
2018-03-17T06:19:19.137Z,43.43
2018-03-17T06:21:47.511Z,41.06
2018-03-17T06:24:16.256Z,40.97
2018-03-17T06:26:44.629Z,40.89
2018-03-17T06:29:12.992Z,40.09
2018-03-17T06:31:41.360Z,38.51
2018-03-17T06:34:09.729Z,40.03
2018-03-17T06:36:38.097Z,39.27
2018-03-17T06:39:06.446Z,39.17
2018-03-17T06:41:34.852Z,39.64
2018-03-17T06:44:03.613Z,41.26
2018-03-17T06:46:31.972Z,40.83
2018-03-17T06:49:00.374Z,39.08
2018-03-17T06:51:28.751Z,38.96
2018-03-17T06:53:57.100Z,38.50
2018-03-17T06:56:25.472Z,37.72
2018-03-17T06:58:53.813Z,37.45
2018-03-17T07:01:22.183Z,34.57
2018-03-17T07:03:51.006Z,34.47
2018-03-17T07:06:19.367Z,34.41
2018-03-17T07:08:47.731Z,35.84
2018-03-17T07:11:16.500Z,35.36
2018-03-17T07:13:44.861Z,35.41
2018-03-17T07:16:13.219Z,34.42
2018-03-17T07:18:41.568Z,37.61
2018-03-17T07:21:09.915Z,35.41
2018-03-17T07:23:38.273Z,35.75
2018-03-17T07:26:06.635Z,34.89
2018-03-17T07:28:35.065Z,35.65
2018-03-17T07:31:03.823Z,37.79
2018-03-17T07:33:32.178Z,34.80
2018-03-17T07:36:00.547Z,34.32
2018-03-17T07:38:28.896Z,35.26
2018-03-17T07:40:57.648Z,34.82
2018-03-17T07:43:25.999Z,36.44
2018-03-17T07:45:54.364Z,36.73
2018-03-17T07:48:22.863Z,37.65
2018-03-17T07:50:51.224Z,38.73
2018-03-17T07:53:19.584Z,37.86
2018-03-17T07:55:47.980Z,34.83
2018-03-17T07:58:16.335Z,33.64
2018-03-17T08:00:45.103Z,33.04
2018-03-17T08:03:13.567Z,31.85
2018-03-17T08:05:41.938Z,30.88
2018-03-17T08:08:10.299Z,32.20
2018-03-17T08:10:38.663Z,31.17
2018-03-17T08:13:07.043Z,33.55
2018-03-17T08:15:35.423Z,28.63
2018-03-17T08:18:03.759Z,31.29
2018-03-17T08:20:32.141Z,30.53
2018-03-17T08:23:00.916Z,32.81
2018-03-17T08:25:29.320Z,30.80
2018-03-17T08:27:58.084Z,33.53
2018-03-17T08:30:26.468Z,34.95
2018-03-17T08:32:55.308Z,34.30
2018-03-17T08:35:23.684Z,34.47
2018-03-17T08:37:52.091Z,33.83
2018-03-17T08:40:20.453Z,33.91
2018-03-17T08:42:48.791Z,35.45
2018-03-17T08:45:17.550Z,35.42
2018-03-17T08:47:45.912Z,34.09
2018-03-17T08:50:14.293Z,35.02
2018-03-17T08:52:42.645Z,35.24
2018-03-17T08:55:11.013Z,35.10
2018-03-17T08:57:39.363Z,35.80
2018-03-17T09:00:07.733Z,35.06
2018-03-17T09:02:36.103Z,35.19
2018-03-17T09:05:04.869Z,34.90
2018-03-17T09:07:33.248Z,34.62
2018-03-17T09:10:01.604Z,34.17
2018-03-17T09:12:30.010Z,33.56
2018-03-17T09:14:58.414Z,34.25
2018-03-17T09:17:26.787Z,32.77
2018-03-17T09:19:55.174Z,33.50
2018-03-17T09:22:23.628Z,33.61
2018-03-17T09:24:52.018Z,33.85
2018-03-17T09:27:20.647Z,33.14
2018-03-17T09:29:49.040Z,33.24
2018-03-17T09:32:17.449Z,33.26
2018-03-17T09:34:45.826Z,32.70
2018-03-17T09:37:14.206Z,31.63
2018-03-17T09:39:42.563Z,30.59
2018-03-17T09:42:11.227Z,30.79
2018-03-17T09:44:40.057Z,30.70
2018-03-17T09:47:08.420Z,30.72
2018-03-17T09:49:36.892Z,29.60
2018-03-17T09:52:05.324Z,29.84
2018-03-17T09:54:33.703Z,30.46
2018-03-17T09:57:02.065Z,30.79
2018-03-17T09:59:30.407Z,31.87
2018-03-17T10:01:58.776Z,32.40
2018-03-17T10:04:27.143Z,31.80
2018-03-17T10:06:55.496Z,31.67
2018-03-17T10:09:23.859Z,31.55
2018-03-17T10:11:52.236Z,31.38
2018-03-17T10:14:20.615Z,32.14
2018-03-17T10:16:49.244Z,32.25
2018-03-17T10:19:17.636Z,33.75
2018-03-17T10:21:46.003Z,34.73
2018-03-17T10:24:14.625Z,34.11
2018-03-17T10:26:43.263Z,33.97
2018-03-17T10:29:11.831Z,32.85
2018-03-17T10:31:40.561Z,31.91
2018-03-17T10:34:09.370Z,31.50
2018-03-17T10:36:38.513Z,31.73
2018-03-17T10:39:07.154Z,31.41
2018-03-17T10:41:35.816Z,31.29
2018-03-17T10:44:04.531Z,30.83
2018-03-17T10:46:33.895Z,30.42
2018-03-17T10:49:02.489Z,29.95
2018-03-17T10:51:31.175Z,30.84
2018-03-17T10:53:59.869Z,30.93
2018-03-17T10:56:29.672Z,31.39
2018-03-17T10:58:58.375Z,32.75
2018-03-17T11:01:27.061Z,32.91
2018-03-17T11:03:55.731Z,32.40
2018-03-17T11:06:24.433Z,32.78
2018-03-17T11:08:53.119Z,32.21
2018-03-17T11:11:21.814Z,31.06
2018-03-17T11:13:50.885Z,32.13
2018-03-17T11:16:19.668Z,32.63
2018-03-17T11:18:48.274Z,31.79
2018-03-17T11:21:16.965Z,31.35
2018-03-17T11:23:45.623Z,31.61
2018-03-17T11:26:14.265Z,31.96
2018-03-17T11:28:43.924Z,32.54
2018-03-17T11:31:12.575Z,31.95
2018-03-17T11:33:41.133Z,32.09
2018-03-17T11:36:09.731Z,31.96
2018-03-17T11:38:39.281Z,31.91
2018-03-17T11:41:07.985Z,32.05
2018-03-17T11:43:36.602Z,32.26
2018-03-17T11:46:05.197Z,32.14
2018-03-17T11:48:33.821Z,32.03
2018-03-17T11:51:02.477Z,32.30
2018-03-17T11:53:31.144Z,31.49
2018-03-17T11:56:00.860Z,30.51
2018-03-17T11:58:29.487Z,31.01
2018-03-17T12:00:58.857Z,32.17
2018-03-17T12:03:27.437Z,31.43
2018-03-17T12:05:56.054Z,31.09
2018-03-17T12:08:24.719Z,31.56
2018-03-17T12:10:53.432Z,31.54
2018-03-17T12:13:22.063Z,32.09
2018-03-17T12:15:51.125Z,31.65
2018-03-17T12:18:19.645Z,32.52
2018-03-17T12:20:48.787Z,32.52
2018-03-17T12:23:17.370Z,32.96
2018-03-17T12:25:45.896Z,33.13
2018-03-17T12:28:14.947Z,33.04
2018-03-17T12:30:43.345Z,33.24
2018-03-17T12:33:11.738Z,34.08
2018-03-17T12:35:40.141Z,33.15
2018-03-17T12:38:08.496Z,32.16
2018-03-17T12:40:36.873Z,31.58
2018-03-17T12:43:05.252Z,32.25
2018-03-17T12:45:33.607Z,31.92
2018-03-17T12:48:01.995Z,32.08
2018-03-17T12:50:30.380Z,32.14
2018-03-17T12:52:58.762Z,32.42
2018-03-17T12:55:27.128Z,31.53
2018-03-17T12:57:55.489Z,31.54
2018-03-17T13:00:23.847Z,31.71
2018-03-17T13:02:52.216Z,31.97
2018-03-17T13:05:20.976Z,32.36
2018-03-17T13:07:49.336Z,32.46
2018-03-17T13:10:17.709Z,32.66
2018-03-17T13:12:46.079Z,31.82
2018-03-17T13:15:14.458Z,31.51
2018-03-17T13:17:42.814Z,32.00
2018-03-17T13:20:11.184Z,32.32
2018-03-17T13:22:58.071Z,32.65
2018-03-17T13:25:26.451Z,33.95
2018-03-17T13:28:12.984Z,33.50
2018-03-17T13:30:41.356Z,32.66
2018-03-17T13:33:09.727Z,32.15
2018-03-17T13:35:55.866Z,31.84
2018-03-17T13:38:24.277Z,32.80
2018-03-17T13:40:52.634Z,33.58
2018-03-17T13:43:21.002Z,33.11
2018-03-17T13:45:49.417Z,32.65
2018-03-17T13:48:17.800Z,32.43
2018-03-17T13:50:46.179Z,33.70
2018-03-17T13:53:14.533Z,33.81
2018-03-17T13:55:42.896Z,33.80
2018-03-17T13:58:13.134Z,33.94
2018-03-17T14:00:41.495Z,33.75
2018-03-17T14:03:09.870Z,34.11
2018-03-17T14:05:38.249Z,34.00
2018-03-17T14:08:06.605Z,35.04
2018-03-17T14:10:35.136Z,34.78
2018-03-17T14:13:03.509Z,34.01
2018-03-17T14:15:31.908Z,35.10
2018-03-17T14:18:00.259Z,34.84
2018-03-17T14:20:28.653Z,35.36
2018-03-17T14:22:57.036Z,34.37
2018-03-17T14:25:25.419Z,34.59
2018-03-17T14:27:53.770Z,34.99
2018-03-17T14:30:22.161Z,35.13
2018-03-17T14:32:50.504Z,35.25
2018-03-17T14:35:18.928Z,36.33
2018-03-17T14:37:47.268Z,36.29
2018-03-17T14:40:15.619Z,35.75
2018-03-17T14:42:44.384Z,36.09
2018-03-17T14:45:12.740Z,36.70
2018-03-17T14:47:41.123Z,36.46
2018-03-17T14:50:09.526Z,36.53
2018-03-17T14:52:37.881Z,36.43
2018-03-17T14:55:06.248Z,36.54
2018-03-17T14:57:34.596Z,36.03
2018-03-17T15:00:02.960Z,35.33
2018-03-17T15:02:31.736Z,34.93
2018-03-17T15:05:00.088Z,34.97
2018-03-17T15:07:28.445Z,35.00
2018-03-17T15:09:56.795Z,34.45
2018-03-17T15:12:25.191Z,33.69
2018-03-17T15:14:53.535Z,33.66
2018-03-17T15:17:22.304Z,33.65
2018-03-17T15:19:50.656Z,34.59
2018-03-17T15:22:19.044Z,35.28
2018-03-17T15:24:47.425Z,35.15
2018-03-17T15:27:15.789Z,36.18
2018-03-17T15:29:44.149Z,35.78
2018-03-17T15:32:12.539Z,36.06
2018-03-17T15:34:40.888Z,36.02
2018-03-17T15:37:09.262Z,35.35
2018-03-17T15:39:38.017Z,35.00
2018-03-17T15:42:06.486Z,35.22
2018-03-17T15:44:34.844Z,35.60
2018-03-17T15:47:03.208Z,35.38
2018-03-17T15:49:31.566Z,35.25
2018-03-17T15:52:00.324Z,35.07
2018-03-17T15:54:28.726Z,35.13
2018-03-17T15:56:57.068Z,34.86
2018-03-17T15:59:25.419Z,34.74
2018-03-17T16:01:53.792Z,34.75
2018-03-17T16:04:22.201Z,34.23
2018-03-17T16:06:50.571Z,33.88
2018-03-17T16:09:18.927Z,34.26
2018-03-17T16:11:47.305Z,34.46
2018-03-17T16:14:15.696Z,35.24
2018-03-17T16:16:44.057Z,34.27
2018-03-17T16:19:12.420Z,33.90
2018-03-17T16:21:40.865Z,33.08
2018-03-17T16:24:09.404Z,33.09
2018-03-17T16:26:37.767Z,32.77
2018-03-17T16:29:06.139Z,33.16
2018-03-17T16:31:35.066Z,33.06
2018-03-17T16:34:03.431Z,32.46
2018-03-17T16:36:31.798Z,31.98
2018-03-17T16:39:00.165Z,31.48
2018-03-17T16:41:29.007Z,32.08
2018-03-17T16:43:57.360Z,32.34
2018-03-17T16:46:25.731Z,31.58
2018-03-17T16:48:54.131Z,30.91
2018-03-17T16:51:22.520Z,30.52
2018-03-17T16:53:50.867Z,31.42
2018-03-17T16:56:19.260Z,31.09
2018-03-17T16:58:47.641Z,30.57
2018-03-17T17:01:16.014Z,30.74
2018-03-17T17:03:44.367Z,31.07
2018-03-17T17:06:12.765Z,30.48
2018-03-17T17:08:41.120Z,30.46
2018-03-17T17:11:09.534Z,30.22
2018-03-17T17:13:37.863Z,31.06
2018-03-17T17:16:06.232Z,31.06
2018-03-17T17:18:34.635Z,31.77
2018-03-17T17:21:04.150Z,32.14
2018-03-17T17:23:33.203Z,32.42
2018-03-17T17:26:01.569Z,31.71
2018-03-17T17:28:29.923Z,31.65
2018-03-17T17:30:58.303Z,31.74
2018-03-17T17:33:26.648Z,32.06
2018-03-17T17:35:55.042Z,32.31
2018-03-17T17:38:23.500Z,32.13
2018-03-17T17:40:51.834Z,32.77
2018-03-17T17:43:20.221Z,32.34
2018-03-17T17:45:48.626Z,32.94
2018-03-17T17:48:16.973Z,32.39
2018-03-17T17:50:45.348Z,32.61
2018-03-17T17:53:13.708Z,32.69
2018-03-17T17:55:42.117Z,32.89
2018-03-17T17:58:10.481Z,32.90
2018-03-17T18:00:38.858Z,32.98
2018-03-17T18:03:07.291Z,33.28
2018-03-17T18:05:35.617Z,33.13
2018-03-17T18:08:03.980Z,33.06
2018-03-17T18:10:32.554Z,33.40
2018-03-17T18:13:00.910Z,33.28
2018-03-17T18:15:29.684Z,33.52
2018-03-17T18:17:58.045Z,33.42
2018-03-17T18:20:26.494Z,33.16
2018-03-17T18:22:55.426Z,33.75
2018-03-17T18:25:23.817Z,33.34
2018-03-17T18:27:52.563Z,33.78
2018-03-17T18:30:20.965Z,34.45
2018-03-17T18:32:49.376Z,34.16
2018-03-17T18:35:18.138Z,34.18
2018-03-17T18:37:46.483Z,34.28
2018-03-17T18:40:14.864Z,34.76
2018-03-17T18:42:43.224Z,34.53
2018-03-17T18:45:11.591Z,33.88
2018-03-17T18:47:40.125Z,33.59
2018-03-17T18:50:08.495Z,33.84
2018-03-17T18:52:36.863Z,34.00
2018-03-17T18:55:05.256Z,33.70
2018-03-17T18:57:33.617Z,33.51
2018-03-17T19:00:01.987Z,33.63
2018-03-17T19:02:30.361Z,33.08
2018-03-17T19:04:58.750Z,33.48
2018-03-17T19:07:27.140Z,33.75
2018-03-17T19:09:55.518Z,34.38
2018-03-17T19:12:23.885Z,34.24
2018-03-17T19:14:52.300Z,34.57
2018-03-17T19:17:20.661Z,33.76
2018-03-17T19:19:49.019Z,33.75
2018-03-17T19:22:17.380Z,34.25
2018-03-17T19:24:45.735Z,34.04
2018-03-17T19:27:14.499Z,33.58
2018-03-17T19:29:42.840Z,33.88
2018-03-17T19:32:11.213Z,34.21
2018-03-17T19:34:39.592Z,34.17
2018-03-17T19:37:07.956Z,33.94
2018-03-17T19:39:36.315Z,34.60
2018-03-17T19:42:05.083Z,34.77
2018-03-17T19:44:33.501Z,34.84
2018-03-17T19:47:01.824Z,35.24
2018-03-17T19:49:30.244Z,34.74
2018-03-17T19:51:58.635Z,34.56
2018-03-17T19:54:26.996Z,34.76
2018-03-17T19:56:55.400Z,34.61
2018-03-17T19:59:23.765Z,34.83
2018-03-17T20:01:52.583Z,34.82
2018-03-17T20:04:20.948Z,34.28
2018-03-17T20:06:49.319Z,34.43
2018-03-17T20:09:17.681Z,34.88
2018-03-17T20:11:46.066Z,35.02
2018-03-17T20:14:14.848Z,34.86
2018-03-17T20:16:43.629Z,35.18
2018-03-17T20:19:12.110Z,35.36
2018-03-17T20:21:40.441Z,34.39
2018-03-17T20:24:08.800Z,34.78
2018-03-17T20:26:37.177Z,35.16
2018-03-17T20:29:05.539Z,34.61
2018-03-17T20:31:34.302Z,34.50
2018-03-17T20:34:02.660Z,35.30
2018-03-17T20:36:31.023Z,35.68
2018-03-17T20:38:59.383Z,35.81
2018-03-17T20:41:27.769Z,35.58
2018-03-17T20:43:56.143Z,35.46
2018-03-17T20:46:24.521Z,36.05
2018-03-17T20:48:52.898Z,36.39
2018-03-17T20:51:21.295Z,35.85
2018-03-17T20:53:49.708Z,35.38
2018-03-17T20:56:18.107Z,35.63
2018-03-17T20:58:46.845Z,35.86
2018-03-17T21:01:15.218Z,35.28
2018-03-17T21:03:43.563Z,34.45
2018-03-17T21:06:12.355Z,34.74
2018-03-17T21:08:40.724Z,34.42
2018-03-17T21:11:09.489Z,34.82
2018-03-17T21:13:37.835Z,35.14
2018-03-17T21:16:06.239Z,34.78
2018-03-17T21:18:34.684Z,34.50
2018-03-17T21:21:03.051Z,34.49
2018-03-17T21:23:31.412Z,33.89
2018-03-17T21:26:00.195Z,34.80
2018-03-17T21:28:28.993Z,34.85
2018-03-17T21:30:57.755Z,34.67
2018-03-17T21:33:26.110Z,35.25
2018-03-17T21:35:54.472Z,36.02
2018-03-17T21:38:22.828Z,35.67
2018-03-17T21:40:51.196Z,35.74
2018-03-17T21:43:19.944Z,35.64
2018-03-17T21:45:48.312Z,35.57
2018-03-17T21:48:16.673Z,35.93
2018-03-17T21:50:45.055Z,35.41
2018-03-17T21:53:13.403Z,36.10
2018-03-17T21:55:41.801Z,35.77
2018-03-17T21:58:10.163Z,35.61
2018-03-17T22:00:38.538Z,35.54
2018-03-17T22:03:06.912Z,35.57
2018-03-17T22:05:35.288Z,35.69
2018-03-17T22:08:04.040Z,35.65
2018-03-17T22:10:32.397Z,35.06
2018-03-17T22:13:00.768Z,34.77
2018-03-17T22:15:29.144Z,35.43
2018-03-17T22:17:57.509Z,34.81
2018-03-17T22:20:25.872Z,35.25
2018-03-17T22:22:54.253Z,35.85
2018-03-17T22:25:22.616Z,35.87
2018-03-17T22:27:51.368Z,35.52
2018-03-17T22:30:19.740Z,35.66
2018-03-17T22:32:48.102Z,35.31
2018-03-17T22:35:16.493Z,35.63
2018-03-17T22:37:44.929Z,35.50
2018-03-17T22:40:13.695Z,35.28
2018-03-17T22:42:42.147Z,35.68
2018-03-17T22:45:10.512Z,35.52
2018-03-17T22:47:38.886Z,36.17
2018-03-17T22:50:07.249Z,35.99
2018-03-17T22:52:35.636Z,36.28
2018-03-17T22:55:04.000Z,36.15
2018-03-17T22:57:32.395Z,36.40
2018-03-17T23:00:00.768Z,36.59
2018-03-17T23:02:29.162Z,36.11
2018-03-17T23:04:57.519Z,35.94
2018-03-17T23:07:25.882Z,35.86
2018-03-17T23:09:54.258Z,35.57
2018-03-17T23:12:23.023Z,35.57
2018-03-17T23:14:51.387Z,35.87
2018-03-17T23:17:19.793Z,36.13
2018-03-17T23:19:48.151Z,35.90
2018-03-17T23:22:16.524Z,35.55
2018-03-17T23:24:44.888Z,36.09
2018-03-17T23:27:13.284Z,35.91
2018-03-17T23:29:41.649Z,36.39
2018-03-17T23:32:10.080Z,36.82
2018-03-17T23:34:38.844Z,37.49
2018-03-17T23:37:07.209Z,36.99
2018-03-17T23:39:35.573Z,37.39
2018-03-17T23:42:03.957Z,36.55
2018-03-17T23:44:32.327Z,36.82
2018-03-17T23:47:00.691Z,36.92
2018-03-17T23:49:29.046Z,37.75
2018-03-17T23:51:57.420Z,37.76
2018-03-17T23:54:26.172Z,36.92
2018-03-17T23:56:54.588Z,36.60
2018-03-17T23:59:22.967Z,36.77
